Weather reports worldwide

Advertisment
Madrid, Spain (8222): temperature & dewpoint: 15.05.2019 17:00:00 - 21.05.2019 17:00:00 (CEST)Madrid, Spain (8222): wind speed & gusts: 15.05.2019 17:00:00 - 21.05.2019 17:00:00 (CEST)Madrid, Spain (8222): wind direction: 15.05.2019 17:00:00 - 21.05.2019 17:00:00 (CEST)Madrid, Spain (8222): reduced air pressure: 15.05.2019 17:00:00 - 21.05.2019 17:00:00 (CEST)Madrid, Spain (8222): precipitation: 15.05.2019 17:00:00 - 21.05.2019 17:00:00 (CEST)
Date & Time tt [°C] td [°C] ff [km/h] ff [kn] fx [km/h] fx [kn] dd ppp [hPa] rr [mm]
21.05.2019 17:00:00 - - - - - - - - -
21.05.2019 16:00:00 25,5 8,5 2 1 15 8 SSE 1010,2 0,0
21.05.2019 15:00:00 23,8 7,0 6 4 16 9 NNW 1011,0 0,0
21.05.2019 14:00:00 23,9 7,6 10 5 17 9 NE 1011,0 -
21.05.2019 13:00:00 22,3 8,0 4 2 20 11 NNE 1011,9 0,0
21.05.2019 12:00:00 20,3 7,7 9 5 23 13 ENE 1012,0 0,0
21.05.2019 11:00:00 18,3 7,4 9 5 22 12 NE 1012,5 0,0
21.05.2019 10:00:00 15,0 5,8 13 7 23 13 NE 1013,0 0,0
21.05.2019 09:00:00 13,5 4,8 11 6 25 13 NNE 1013,3 0,0
21.05.2019 08:00:00 13,4 4,8 12 6 23 12 NE 1012,9 -
21.05.2019 07:00:00 13,3 4,6 12 7 23 13 NNE 1012,4 0,0
21.05.2019 06:00:00 13,6 4,6 8 5 17 9 NNE 1012,1 0,0
21.05.2019 05:00:00 14,0 4,6 5 3 22 12 NNE 1012,1 0,0
21.05.2019 04:00:00 14,5 4,1 10 5 26 14 NE 1011,4 0,0
21.05.2019 03:00:00 15,3 3,8 10 5 22 12 NE 1011,1 0,0
21.05.2019 02:00:00 15,0 3,8 8 4 16 8 NNE 1011,3 -
21.05.2019 01:00:00 15,6 3,8 3 2 12 6 NE 1011,3 0,0
21.05.2019 00:00:00 16,3 3,8 5 3 13 7 NNW 1011,0 0,0
20.05.2019 23:00:00 16,4 2,5 4 2 16 8 W 1010,8 0,0
20.05.2019 22:00:00 18,6 3,6 5 3 14 8 W 1009,9 0,0
20.05.2019 21:00:00 19,4 3,9 4 2 11 6 W 1008,9 0,0
20.05.2019 20:00:00 20,4 3,9 6 3 16 9 WSW 1008,7 -
20.05.2019 19:00:00 20,6 4,1 9 5 19 10 W 1008,6 0,0
20.05.2019 18:00:00 20,6 4,1 1 1 17 9 ENE 1008,8 0,0
20.05.2019 17:00:00 20,9 4,5 4 2 14 8 W 1009,0 0,0
20.05.2019 16:00:00 20,4 4,8 2 1 21 11 W 1009,4 0,0
20.05.2019 15:00:00 20,8 5,6 5 3 17 9 SSW 1009,7 0,0
20.05.2019 14:00:00 20,4 5,9 4 2 16 9 SSW 1010,6 -
20.05.2019 13:00:00 19,9 6,5 4 2 16 9 ESE 1009,8 0,0
20.05.2019 12:00:00 17,3 6,5 2 1 11 6 ESE 1011,3 0,0
20.05.2019 11:00:00 13,9 5,3 5 3 13 7 NNE 1012,2 0,0
20.05.2019 10:00:00 12,0 5,0 4 2 25 13 NE 1012,9 0,0
20.05.2019 09:00:00 10,3 3,9 11 6 26 14 NE 1012,6 0,0
20.05.2019 08:00:00 9,7 3,4 11 6 27 14 NE 1012,6 -
20.05.2019 07:00:00 9,4 3,2 10 5 24 13 NE 1012,3 0,0
20.05.2019 06:00:00 9,8 3,6 10 6 24 13 NNE 1012,0 0,0
20.05.2019 05:00:00 10,2 3,4 9 5 23 12 NNE 1012,2 0,0
20.05.2019 04:00:00 11,0 3,2 11 6 21 12 NNE 1011,8 0,0
20.05.2019 03:00:00 11,9 2,7 9 5 20 11 NE 1011,9 0,0
20.05.2019 02:00:00 13,0 2,5 9 5 21 11 NE 1011,6 -
20.05.2019 01:00:00 13,9 2,5 6 3 18 10 ENE 1011,2 0,0
20.05.2019 00:00:00 14,9 2,5 6 3 24 13 ENE 1011,0 0,0
19.05.2019 23:00:00 16,0 2,1 9 5 21 12 NNE 1010,2 0,0
19.05.2019 22:00:00 16,4 1,3 8 4 21 12 N 1009,5 0,0
19.05.2019 21:00:00 17,4 1,3 6 3 20 11 NW 1009,0 0,0
19.05.2019 20:00:00 18,8 2,1 10 5 26 14 WNW 1007,9 -
19.05.2019 19:00:00 19,4 3,0 5 3 23 12 NW 1007,5 0,0
19.05.2019 18:00:00 19,2 2,9 7 4 23 13 WNW 1008,0 0,0
19.05.2019 17:00:00 19,8 3,9 5 3 23 12 WSW 1008,1 0,0
19.05.2019 16:00:00 19,5 4,8 5 3 19 11 WSW 1008,8 0,0
19.05.2019 15:00:00 18,9 5,0 3 2 23 13 NNW 1008,1 0,0
19.05.2019 14:00:00 18,9 5,3 4 2 25 13 SSE 1008,7 -
19.05.2019 13:00:00 16,1 4,1 3 2 12 7 SW 1009,9 0,0
19.05.2019 12:00:00 16,9 5,5 7 4 16 9 W 1010,0 0,0
19.05.2019 11:00:00 14,6 4,6 4 2 16 9 S 1010,5 0,0
19.05.2019 10:00:00 13,4 4,3 4 2 13 7 ESE 1010,9 0,0
19.05.2019 09:00:00 11,5 3,8 3 2 10 6 SE 1011,1 0,0
19.05.2019 08:00:00 10,5 3,9 3 1 11 6 E 1010,8 -
19.05.2019 07:00:00 10,2 3,8 5 3 9 5 ESE 1010,7 0,0
19.05.2019 06:00:00 10,6 3,6 3 2 9 5 E 1010,4 0,0
19.05.2019 05:00:00 10,8 3,6 4 2 16 9 NNW 1010,2 0,0
19.05.2019 04:00:00 12,1 2,9 9 5 22 12 N 1010,2 0,0
19.05.2019 03:00:00 12,4 2,3 8 4 17 9 N 1010,2 0,0
19.05.2019 02:00:00 13,3 2,3 8 4 19 11 N 1010,1 -
19.05.2019 01:00:00 13,6 2,3 5 3 18 10 NW 1010,1 0,0
19.05.2019 00:00:00 14,1 2,1 6 3 17 9 NNW 1010,1 0,0
18.05.2019 23:00:00 14,3 1,5 5 3 17 9 NNE 1010,0 0,0
18.05.2019 22:00:00 14,9 1,5 8 5 23 12 NNW 1009,5 0,0
18.05.2019 21:00:00 15,3 1,7 10 5 26 14 WNW 1009,2 0,0
18.05.2019 20:00:00 16,0 2,1 10 5 27 15 NNW 1008,5 -
18.05.2019 19:00:00 16,6 2,7 14 7 33 18 NW 1007,0 0,0
18.05.2019 18:00:00 17,1 2,7 15 8 29 16 WNW 1007,2 0,0
18.05.2019 17:00:00 17,4 2,9 10 5 29 16 NNW 1007,8 0,0
18.05.2019 16:00:00 17,8 2,9 7 4 29 16 WNW 1007,8 0,0
18.05.2019 15:00:00 17,9 3,4 3 1 21 11 N 1007,6 0,0
18.05.2019 14:00:00 17,2 3,4 2 1 19 10 N 1007,9 -
18.05.2019 13:00:00 14,6 2,1 5 3 15 8 NNE 1009,2 0,0
18.05.2019 12:00:00 12,9 2,5 0 0 16 9 NNW 1009,5 0,0
18.05.2019 11:00:00 12,9 2,7 3 2 13 7 WSW 1009,4 0,0
18.05.2019 10:00:00 10,6 1,9 4 2 19 11 W 1009,9 0,0
18.05.2019 09:00:00 9,3 1,7 10 6 31 17 NW 1009,8 0,0
18.05.2019 08:00:00 8,4 0,9 9 5 33 18 NW 1009,8 -
18.05.2019 07:00:00 8,8 1,3 9 5 26 14 WNW 1009,4 0,0
18.05.2019 06:00:00 9,3 0,6 9 5 28 15 NW 1009,0 0,0
18.05.2019 05:00:00 10,1 0,6 8 4 32 17 NW 1008,7 0,0
18.05.2019 04:00:00 10,5 1,5 10 5 26 14 NW 1009,0 0,0
18.05.2019 03:00:00 11,1 2,9 8 4 27 14 NW 1009,3 0,0
18.05.2019 02:00:00 11,5 2,9 9 5 34 19 NW 1009,5 -
18.05.2019 01:00:00 12,3 2,1 13 7 31 17 NW 1009,3 0,0
18.05.2019 00:00:00 13,3 2,5 13 7 29 16 WNW 1009,1 0,0
17.05.2019 23:00:00 13,8 3,2 8 5 25 13 WNW 1009,2 0,0
17.05.2019 22:00:00 14,7 3,2 7 4 21 12 NNW 1008,5 0,0
17.05.2019 21:00:00 15,4 3,6 9 5 28 15 NNW 1007,8 0,0
17.05.2019 20:00:00 15,8 3,9 13 7 28 15 NW 1007,2 -
17.05.2019 19:00:00 16,0 3,8 13 7 31 17 WNW 1006,5 0,0
17.05.2019 18:00:00 16,4 3,8 11 6 29 16 NW 1007,3 0,0
17.05.2019 17:00:00 17,5 4,8 10 6 37 20 NW 1007,3 0,0
17.05.2019 16:00:00 17,8 6,1 16 9 41 22 WNW 1006,4 0,0
17.05.2019 15:00:00 14,6 4,6 9 5 37 20 NW 1009,0 0,0
17.05.2019 14:00:00 15,3 4,6 16 9 47 26 WNW 1008,8 -
17.05.2019 13:00:00 15,5 5,6 19 11 43 23 NW 1008,5 0,0
17.05.2019 12:00:00 12,9 4,3 18 10 42 23 WNW 1009,1 0,0
17.05.2019 11:00:00 13,7 5,1 21 12 49 27 WNW 1007,5 0,0
17.05.2019 10:00:00 12,6 4,8 16 8 43 23 NW 1007,8 0,0
17.05.2019 09:00:00 10,5 4,1 16 8 37 20 W 1007,9 0,0
17.05.2019 08:00:00 10,2 3,9 16 9 39 21 W 1007,4 -
17.05.2019 07:00:00 10,1 3,8 13 7 28 15 WNW 1007,0 0,0
17.05.2019 06:00:00 10,5 3,9 18 10 44 24 NW 1006,7 0,0
17.05.2019 05:00:00 10,7 3,9 17 9 52 28 WNW 1006,5 0,0
17.05.2019 04:00:00 10,8 4,5 14 8 40 22 W 1005,9 0,0
17.05.2019 03:00:00 11,0 4,8 23 12 51 28 WNW 1005,9 0,0
17.05.2019 02:00:00 11,5 5,3 15 8 43 23 NW 1005,4 -
17.05.2019 01:00:00 11,6 6,5 14 7 45 24 WNW 1005,4 0,1
17.05.2019 00:00:00 12,4 4,6 25 14 60 33 WNW 1005,4 0,0
16.05.2019 23:00:00 18,3 6,1 15 8 46 25 WNW 1002,6 0,0
16.05.2019 22:00:00 19,8 7,8 13 7 37 20 WNW 1000,9 0,0
16.05.2019 21:00:00 21,8 8,3 16 9 36 19 WNW 1000,0 0,0
16.05.2019 20:00:00 23,1 8,8 15 8 42 23 NW 999,2 -
16.05.2019 19:00:00 27,3 9,2 21 11 58 32 W 998,6 0,0
16.05.2019 18:00:00 28,4 9,2 18 10 49 27 WSW 998,8 0,0
16.05.2019 17:00:00 29,1 10,8 16 8 38 21 SW 999,2 0,0
16.05.2019 16:00:00 29,7 12,1 14 8 32 18 WSW 1000,5 0,0
16.05.2019 15:00:00 28,6 12,8 9 5 26 14 SW 1001,9 0,0
16.05.2019 14:00:00 26,2 12,3 6 4 20 11 SSW 1003,7 -
16.05.2019 13:00:00 24,3 12,2 4 2 16 8 SSE 1005,1 0,0
16.05.2019 12:00:00 22,0 11,4 7 4 17 9 S 1006,3 0,0
16.05.2019 11:00:00 19,8 11,0 5 3 14 8 ESE 1007,4 0,0
16.05.2019 10:00:00 17,1 10,0 3 2 13 7 SE 1007,7 0,0
16.05.2019 09:00:00 15,8 9,4 6 4 14 8 SSE 1008,8 0,0
16.05.2019 08:00:00 15,3 7,3 2 1 11 6 SSW 1009,4 -
16.05.2019 07:00:00 15,6 6,1 2 1 12 6 ESE 1009,3 0,0
16.05.2019 06:00:00 16,6 3,2 4 2 17 9 E 1008,2 0,0
16.05.2019 05:00:00 17,6 3,4 6 3 13 7 ENE 1008,2 0,0
16.05.2019 04:00:00 18,1 2,5 2 1 9 5 E 1009,0 0,0
16.05.2019 03:00:00 19,4 1,3 2 1 23 12 NE 1008,3 0,0
16.05.2019 02:00:00 21,8 1,9 9 5 30 16 ENE 1007,9 -
16.05.2019 01:00:00 22,8 2,3 10 5 21 11 NE 1008,1 0,0
16.05.2019 00:00:00 24,1 3,4 11 6 27 15 NNE 1008,0 0,0
15.05.2019 23:00:00 25,0 3,6 9 5 22 12 NE 1007,8 0,0
15.05.2019 22:00:00 26,2 3,9 8 5 22 12 NNE 1007,0 0,0
15.05.2019 21:00:00 27,6 5,1 7 4 28 15 NNE 1006,2 0,0
15.05.2019 20:00:00 29,1 5,8 9 5 31 17 NNE 1005,6 -
15.05.2019 19:00:00 30,4 7,0 7 4 28 15 NNE 1005,2 0,0
15.05.2019 18:00:00 30,4 7,0 11 6 27 15 WNW 1005,2 0,0
15.05.2019 17:00:00 32,1 8,4 9 5 21 12 N 1004,9 0,0

tt = temperature
td = dewpoint
ff = wind speed
fx = gusts
dd = wind direction
ppp = reduced air pressure
rr = precipitation

Next stations